Purdue University Airport
KLAF : now visible

Airfield :











YOU CAN JOIN US ON...

 
LOGIN :

Register | Disclaimer

   EN    FR    IT 

 









Legend :    VFR   Marginal VFR   IFR   Intensive IFR   Very Intensive IFR
Visi :
Ceiling :
>= 8 km
>= 3000ft
5 to 8 km
1000 to 3000 ft
1500m to 5 km
500 to 1000 ft
800 to 1500m
200 to 500 ft
< 800m
< 200 ft
Symbols :   Thunderstorms  Fog  Heavy snow  Heavy precipitations  Wind > 20 kt







- Airport Elevation : 606 ft
- IATA code : LAF


KLAF - Purdue University

CURRENT METAR :
  • 212054Z VRB06KT 10SM FEW120 28/18 A3010 RMK AO2 RAB19E31 SLP188 P0000 60000 T02780183 58015 $

EXPIRED METARs :
  • 211954Z 20007G15KT 10SM FEW047 28/18 A3012 RMK AO2 SLP194 T02830178 $
  • 211854Z 22011G17KT 10SM CLR 29/18 A3014 RMK AO2 SLP200 T02940178 $

TAF KLAF
Valid from the 21 at 18:00 until the 22 at 18:00 UTC


211720Z 2118/2218 21013KT P6SM SCT040 BKN180
FM220000 19008KT P6SM BKN180
FM221200 20010G22KT P6SM SCT100
FM221700 22014G25KT P6SM BKN150
No reported NOTAMs for that airfield.



MET'MAP, your aeronautical weather chart ! - Copyright ORBIFLY December 2007 - Disclaimer

ORBIFLY MET'MAP TEAM :

Programming & Development : Alexandra Zaïnal
Concept & Development : Baudouin d'Aumeries
Co-Development & Prog : Marc-Olivier Méhu
Technical & hardware support : Manuel Goepfert

Contact : metmap@orbifly.com




SOURCES & CREDITS :

   NOAA       Earth
Advisory